createdAt,value
2023-02-03T00:01:03.185Z,26.95
2023-02-03T00:03:33.510Z,27.20
2023-02-03T00:06:05.542Z,28.55
2023-02-03T00:08:36.227Z,31.88
2023-02-03T00:11:06.646Z,32.50
2023-02-03T00:13:37.960Z,36.15
2023-02-03T00:16:08.597Z,26.20
2023-02-03T00:18:39.184Z,32.55
2023-02-03T00:21:09.697Z,28.38
2023-02-03T00:23:39.922Z,30.13
2023-02-03T00:26:12.062Z,28.00
2023-02-03T00:28:44.807Z,27.55
2023-02-03T00:31:19.348Z,28.33
2023-02-03T00:33:50.402Z,30.98
2023-02-03T00:36:20.788Z,28.63
2023-02-03T00:38:51.843Z,32.30
2023-02-03T00:41:22.776Z,30.08
2023-02-03T00:43:54.619Z,31.30
2023-02-03T00:46:24.857Z,30.15
2023-02-03T00:48:55.593Z,29.60
2023-02-03T00:51:26.131Z,30.40
2023-02-03T00:53:57.371Z,28.20
2023-02-03T00:56:27.794Z,31.27
2023-02-03T00:58:58.349Z,30.63
2023-02-03T01:01:28.977Z,31.15
2023-02-03T01:04:01.613Z,29.33
2023-02-03T01:06:32.558Z,31.63
2023-02-03T01:09:04.388Z,35.65
2023-02-03T01:11:37.060Z,35.05
2023-02-03T01:14:08.192Z,37.78
2023-02-03T01:16:40.093Z,26.48
2023-02-03T01:19:10.840Z,26.92
2023-02-03T01:21:42.016Z,27.10
2023-02-03T01:24:12.707Z,26.67
2023-02-03T01:26:43.492Z,28.35
2023-02-03T01:29:14.077Z,29.08
2023-02-03T01:31:45.388Z,29.65
2023-02-03T01:34:17.847Z,28.90
2023-02-03T01:36:48.221Z,27.15
2023-02-03T01:39:18.355Z,28.73
2023-02-03T01:41:49.278Z,27.27
2023-02-03T01:44:38.944Z,61.70
2023-02-03T01:47:19.199Z,29.23
2023-02-03T01:49:58.902Z,28.92
2023-02-03T01:52:29.471Z,28.08
2023-02-03T01:55:00.593Z,28.30
2023-02-03T01:57:35.209Z,33.15
2023-02-03T02:00:07.318Z,31.35
2023-02-03T02:02:44.816Z,31.17
2023-02-03T02:05:28.241Z,32.53
2023-02-03T02:07:59.736Z,28.98
2023-02-03T02:10:35.144Z,28.65
2023-02-03T02:13:06.432Z,31.02
2023-02-03T02:15:56.250Z,29.50
2023-02-03T02:18:45.883Z,27.70
2023-02-03T02:21:36.321Z,28.67
2023-02-03T02:24:26.029Z,28.60
2023-02-03T02:27:16.358Z,30.42
2023-02-03T02:30:06.710Z,32.63
2023-02-03T02:32:57.202Z,33.45
2023-02-03T02:35:35.675Z,30.83
2023-02-03T02:38:08.221Z,33.05
2023-02-03T02:40:40.504Z,32.53
2023-02-03T02:43:21.243Z,32.45
2023-02-03T02:45:53.236Z,31.80
2023-02-03T02:48:32.659Z,29.83
2023-02-03T02:51:03.919Z,30.85
2023-02-03T02:53:36.360Z,31.45
2023-02-03T02:56:11.090Z,29.13
2023-02-03T02:58:43.625Z,29.88
2023-02-03T03:01:14.175Z,29.58
2023-02-03T03:03:46.737Z,29.38
2023-02-03T03:06:24.689Z,28.48
2023-02-03T03:08:57.633Z,29.15
2023-02-03T03:11:29.451Z,27.63
2023-02-03T03:14:02.081Z,28.25
2023-02-03T03:16:34.574Z,29.92
2023-02-03T03:19:07.991Z,28.92
2023-02-03T03:21:40.781Z,30.63
2023-02-03T03:24:13.228Z,30.55
2023-02-03T03:26:53.231Z,53.42
2023-02-03T03:29:25.237Z,57.72
2023-02-03T03:31:55.841Z,38.63
2023-02-03T03:34:26.257Z,32.00
2023-02-03T03:37:03.066Z,30.00
2023-02-03T03:39:38.054Z,33.25
2023-02-03T03:42:30.689Z,35.40
2023-02-03T03:45:12.523Z,34.40
2023-02-03T03:47:47.207Z,36.47
2023-02-03T03:50:19.004Z,38.97
2023-02-03T03:52:50.954Z,37.70
2023-02-03T03:55:22.359Z,36.90
2023-02-03T03:57:58.743Z,41.17
2023-02-03T04:00:30.933Z,42.35
2023-02-03T04:03:03.922Z,40.78
2023-02-03T04:05:35.027Z,41.60
2023-02-03T04:08:05.526Z,41.22
2023-02-03T04:10:41.397Z,41.55
2023-02-03T04:13:12.698Z,49.88
2023-02-03T04:15:43.004Z,64.30
2023-02-03T04:18:14.989Z,44.95
2023-02-03T04:20:46.171Z,40.92
2023-02-03T04:23:16.627Z,42.72
2023-02-03T04:25:47.745Z,39.60
2023-02-03T04:28:18.731Z,40.65
2023-02-03T04:30:49.248Z,44.80
2023-02-03T04:33:20.241Z,42.50
2023-02-03T04:35:51.354Z,42.38
2023-02-03T04:38:21.821Z,45.75
2023-02-03T04:40:52.908Z,54.05
2023-02-03T04:43:23.838Z,61.53
2023-02-03T04:45:54.175Z,54.75
2023-02-03T04:48:25.067Z,52.03
2023-02-03T04:50:55.744Z,54.53
2023-02-03T04:53:26.262Z,45.70
2023-02-03T04:55:56.428Z,40.15
2023-02-03T04:58:28.445Z,39.92
2023-02-03T05:00:59.659Z,33.92
2023-02-03T05:03:29.879Z,34.50
2023-02-03T05:06:00.505Z,36.33
2023-02-03T05:08:30.738Z,35.33
2023-02-03T05:11:02.327Z,32.22
2023-02-03T05:13:33.288Z,33.65
2023-02-03T05:16:04.754Z,30.65
2023-02-03T05:18:35.576Z,29.20
2023-02-03T05:21:06.155Z,28.10
2023-02-03T05:23:36.812Z,27.02
2023-02-03T05:26:07.199Z,27.50
2023-02-03T05:28:38.063Z,25.27
2023-02-03T05:31:08.601Z,30.02
2023-02-03T05:33:39.205Z,23.73
2023-02-03T05:36:10.341Z,23.65
2023-02-03T05:38:40.810Z,23.83
2023-02-03T05:41:32.269Z,20.15
2023-02-03T05:44:02.936Z,27.95
2023-02-03T05:46:33.368Z,25.95
2023-02-03T05:49:03.733Z,23.55
2023-02-03T05:51:34.105Z,26.17
2023-02-03T05:54:04.499Z,24.63
2023-02-03T05:56:34.700Z,26.60
2023-02-03T05:59:04.755Z,23.90
2023-02-03T06:01:35.880Z,25.35
2023-02-03T06:04:07.254Z,25.23
2023-02-03T06:06:38.698Z,24.50
2023-02-03T06:09:10.939Z,21.65
2023-02-03T06:11:43.092Z,19.67
2023-02-03T06:14:13.983Z,20.30
2023-02-03T06:16:44.910Z,21.13
2023-02-03T06:19:16.324Z,22.60
2023-02-03T06:21:47.311Z,23.25
2023-02-03T06:24:17.998Z,22.00
2023-02-03T06:26:48.097Z,22.45
2023-02-03T06:29:18.644Z,17.13
2023-02-03T06:31:49.064Z,17.55
2023-02-03T06:34:19.613Z,21.88
2023-02-03T06:36:50.741Z,17.05
2023-02-03T06:39:21.599Z,19.30
2023-02-03T06:41:53.296Z,19.02
2023-02-03T06:44:23.377Z,21.63
2023-02-03T06:46:53.749Z,18.38
2023-02-03T06:49:24.708Z,17.92
2023-02-03T06:51:54.888Z,17.95
2023-02-03T06:54:25.396Z,17.75
2023-02-03T06:56:55.819Z,16.80
2023-02-03T06:59:26.169Z,19.45
2023-02-03T07:01:56.530Z,16.27
2023-02-03T07:04:26.834Z,15.98
2023-02-03T07:06:56.993Z,19.38
2023-02-03T07:09:27.919Z,20.63
2023-02-03T07:11:58.836Z,19.17
2023-02-03T07:14:29.557Z,16.75
2023-02-03T07:17:00.055Z,16.70
2023-02-03T07:19:30.285Z,22.50
2023-02-03T07:22:00.991Z,19.75
2023-02-03T07:24:31.825Z,20.33
2023-02-03T07:27:04.430Z,16.85
2023-02-03T07:29:34.957Z,18.00
2023-02-03T07:32:05.612Z,19.15
2023-02-03T07:34:35.910Z,19.95
2023-02-03T07:37:06.134Z,17.73
2023-02-03T07:39:36.503Z,16.88
2023-02-03T07:42:06.770Z,16.35
2023-02-03T07:44:41.486Z,17.90
2023-02-03T07:47:12.704Z,18.15
2023-02-03T07:49:44.388Z,17.63
2023-02-03T07:52:14.506Z,15.95
2023-02-03T07:54:45.048Z,14.43
2023-02-03T07:57:15.208Z,18.08
2023-02-03T07:59:46.028Z,15.55
2023-02-03T08:02:16.873Z,20.60
2023-02-03T08:04:47.358Z,16.77
2023-02-03T08:07:17.791Z,18.25
2023-02-03T08:09:49.026Z,16.02
2023-02-03T08:12:19.430Z,16.70
2023-02-03T08:14:50.403Z,16.27
2023-02-03T08:17:20.488Z,16.02
2023-02-03T08:19:51.061Z,14.98
2023-02-03T08:22:21.622Z,20.00
2023-02-03T08:24:51.849Z,21.15
2023-02-03T08:27:23.661Z,15.25
2023-02-03T08:29:54.375Z,15.90
2023-02-03T08:32:26.291Z,18.25
2023-02-03T08:34:57.525Z,25.50
2023-02-03T08:37:28.279Z,18.40
2023-02-03T08:39:58.772Z,20.73
2023-02-03T08:42:28.979Z,20.85
2023-02-03T08:44:59.539Z,20.35
2023-02-03T08:47:29.868Z,19.67
2023-02-03T08:50:00.285Z,20.63
2023-02-03T08:52:31.826Z,20.10
2023-02-03T08:55:02.201Z,21.45
2023-02-03T08:57:37.114Z,19.42
2023-02-03T09:00:07.834Z,19.23
2023-02-03T09:02:38.815Z,20.90
2023-02-03T09:05:09.536Z,19.00
2023-02-03T09:07:41.147Z,24.08
2023-02-03T09:10:12.040Z,24.38
2023-02-03T09:12:43.590Z,23.27
2023-02-03T09:15:15.074Z,20.08
2023-02-03T09:17:45.933Z,23.95
2023-02-03T09:20:16.797Z,22.23
2023-02-03T09:22:47.057Z,21.10
2023-02-03T09:25:18.395Z,20.95
2023-02-03T09:27:48.917Z,24.25
2023-02-03T09:30:19.622Z,24.15
2023-02-03T09:32:55.610Z,22.15
2023-02-03T09:35:28.344Z,24.08
2023-02-03T09:37:58.658Z,22.33
2023-02-03T09:40:32.323Z,21.75
2023-02-03T09:43:16.481Z,22.60
2023-02-03T09:45:46.826Z,22.02
2023-02-03T09:48:21.238Z,20.55
2023-02-03T09:50:52.049Z,23.77
2023-02-03T09:53:42.537Z,18.55
2023-02-03T09:56:20.920Z,20.20
2023-02-03T09:58:51.057Z,18.75
2023-02-03T10:01:23.747Z,17.33
2023-02-03T10:04:13.581Z,21.90
2023-02-03T10:06:47.021Z,20.15
2023-02-03T10:09:39.031Z,27.63
2023-02-03T10:12:18.871Z,21.80
2023-02-03T10:15:08.611Z,19.10
2023-02-03T10:17:58.360Z,18.65
2023-02-03T10:20:39.749Z,18.88
2023-02-03T10:23:14.460Z,18.15
2023-02-03T10:25:46.459Z,19.30
2023-02-03T10:28:27.733Z,22.88
2023-02-03T10:30:58.974Z,20.88
2023-02-03T10:33:31.035Z,18.30
2023-02-03T10:36:07.177Z,20.70
2023-02-03T10:38:57.518Z,23.60
2023-02-03T10:41:28.023Z,24.83
2023-02-03T10:43:59.111Z,21.48
2023-02-03T10:46:30.994Z,23.73
2023-02-03T10:49:01.800Z,22.42
2023-02-03T10:51:33.654Z,22.35
2023-02-03T10:54:04.741Z,25.48
2023-02-03T10:56:39.039Z,28.30
2023-02-03T10:59:11.356Z,26.10
2023-02-03T11:01:43.909Z,26.02
2023-02-03T11:04:34.427Z,28.48
2023-02-03T11:07:10.479Z,27.80
2023-02-03T11:09:41.780Z,26.50
2023-02-03T11:12:19.732Z,32.95
2023-02-03T11:14:54.087Z,26.13
2023-02-03T11:17:28.659Z,28.02
2023-02-03T11:20:05.672Z,25.58
2023-02-03T11:22:40.169Z,25.60
2023-02-03T11:25:31.580Z,27.42
2023-02-03T11:28:06.793Z,34.50
2023-02-03T11:30:37.058Z,37.45
2023-02-03T11:33:17.753Z,31.17
2023-02-03T11:35:59.743Z,48.35
2023-02-03T11:38:32.601Z,38.60
2023-02-03T11:41:03.461Z,33.30
2023-02-03T11:43:33.896Z,35.95
2023-02-03T11:46:10.038Z,36.78
2023-02-03T11:48:44.848Z,37.25
2023-02-03T11:51:29.413Z,39.95
2023-02-03T11:54:13.998Z,39.67
2023-02-03T11:57:03.779Z,39.75
2023-02-03T11:59:41.872Z,40.03
2023-02-03T12:02:31.892Z,37.13
2023-02-03T12:05:22.161Z,40.78
2023-02-03T12:08:11.838Z,42.35
2023-02-03T12:10:55.313Z,36.17
2023-02-03T12:13:40.100Z,39.55
2023-02-03T12:16:21.269Z,39.53
2023-02-03T12:19:04.639Z,39.53
2023-02-03T12:21:54.494Z,39.40
2023-02-03T12:24:44.583Z,37.78
2023-02-03T12:27:23.836Z,38.70
2023-02-03T12:29:57.934Z,41.80
2023-02-03T12:32:31.677Z,36.67
2023-02-03T12:35:07.133Z,43.38
2023-02-03T12:37:45.224Z,43.05
2023-02-03T12:40:18.537Z,47.05
2023-02-03T12:43:01.085Z,49.22
2023-02-03T12:45:32.743Z,49.03
2023-02-03T12:48:22.381Z,51.70
2023-02-03T12:51:12.490Z,52.28
2023-02-03T12:53:45.247Z,55.53
2023-02-03T12:56:17.967Z,53.75
2023-02-03T12:58:52.088Z,63.63
2023-02-03T13:01:25.407Z,59.45
2023-02-03T13:04:15.767Z,65.65
2023-02-03T13:06:54.984Z,64.90
2023-02-03T13:09:45.190Z,52.70
2023-02-03T13:12:34.912Z,56.33
2023-02-03T13:15:24.947Z,59.20
2023-02-03T13:18:02.094Z,50.63
2023-02-03T13:20:33.334Z,51.45
2023-02-03T13:23:03.946Z,59.38
2023-02-03T13:25:54.002Z,73.80
2023-02-03T13:28:44.014Z,68.18
2023-02-03T13:31:33.977Z,64.57
2023-02-03T13:34:23.946Z,69.78
2023-02-03T13:37:08.259Z,71.80
2023-02-03T13:39:49.639Z,80.43
2023-02-03T13:42:34.518Z,75.20
2023-02-03T13:45:24.269Z,81.45
2023-02-03T13:48:02.226Z,80.55
2023-02-03T13:50:33.547Z,80.50
2023-02-03T13:53:18.548Z,76.32
2023-02-03T13:55:57.383Z,83.38
2023-02-03T13:58:35.894Z,80.60
2023-02-03T14:01:27.031Z,83.45
2023-02-03T14:04:00.444Z,85.30
2023-02-03T14:06:50.656Z,82.97
2023-02-03T14:09:42.477Z,86.07
2023-02-03T14:12:34.538Z,88.30
2023-02-03T14:15:19.415Z,81.18
2023-02-03T14:17:59.747Z,85.82
2023-02-03T14:20:40.504Z,83.10
2023-02-03T14:23:13.844Z,90.97
2023-02-03T14:25:45.709Z,83.57
2023-02-03T14:28:18.698Z,92.13
2023-02-03T14:31:09.306Z,81.80
2023-02-03T14:33:59.417Z,81.30
2023-02-03T14:36:36.492Z,78.75
2023-02-03T14:39:24.030Z,75.97
2023-02-03T14:42:13.788Z,78.65
2023-02-03T14:44:50.197Z,70.25
2023-02-03T14:47:26.984Z,88.80
2023-02-03T14:50:16.864Z,65.93
2023-02-03T14:53:06.602Z,66.38
2023-02-03T14:55:42.172Z,62.75
2023-02-03T14:58:34.119Z,62.10
2023-02-03T15:01:09.900Z,67.68
2023-02-03T15:03:43.679Z,65.05
2023-02-03T15:06:33.925Z,65.60
2023-02-03T15:09:15.625Z,62.90
2023-02-03T15:11:49.421Z,63.40
2023-02-03T15:14:34.585Z,64.68
2023-02-03T15:17:05.613Z,64.53
2023-02-03T15:19:37.619Z,63.13
2023-02-03T15:22:21.162Z,63.17
2023-02-03T15:24:52.611Z,65.63
2023-02-03T15:27:27.323Z,72.60
2023-02-03T15:30:03.663Z,75.63
2023-02-03T15:32:36.487Z,62.22
2023-02-03T15:35:09.946Z,68.43
2023-02-03T15:37:52.974Z,65.22
2023-02-03T15:40:25.029Z,65.70
2023-02-03T15:43:15.031Z,67.93
2023-02-03T15:46:04.793Z,66.47
2023-02-03T15:48:41.063Z,63.67
2023-02-03T15:51:22.606Z,65.47
2023-02-03T15:53:58.183Z,63.20
2023-02-03T15:56:39.253Z,66.13
2023-02-03T15:59:22.727Z,69.78
2023-02-03T16:01:53.581Z,61.70
2023-02-03T16:04:24.879Z,68.25
2023-02-03T16:06:56.878Z,64.75
2023-02-03T16:09:46.884Z,65.40
2023-02-03T16:12:20.115Z,65.55
2023-02-03T16:14:51.006Z,61.20
2023-02-03T16:17:38.128Z,61.75
2023-02-03T16:20:29.891Z,68.97
2023-02-03T16:23:05.206Z,65.43
2023-02-03T16:25:37.457Z,73.00
2023-02-03T16:28:40.339Z,119.63
2023-02-03T16:31:37.071Z,62.85
2023-02-03T16:34:35.922Z,65.43
2023-02-03T16:37:45.116Z,59.75
2023-02-03T16:40:36.448Z,61.42
2023-02-03T16:43:27.365Z,62.10
2023-02-03T16:46:18.270Z,60.00
2023-02-03T16:49:08.414Z,62.47
2023-02-03T16:51:44.144Z,66.15
2023-02-03T16:54:15.744Z,58.10
2023-02-03T16:56:46.811Z,61.95
2023-02-03T16:59:17.932Z,63.20
2023-02-03T17:01:48.489Z,65.53
2023-02-03T17:04:18.804Z,61.97
2023-02-03T17:06:52.619Z,61.78
2023-02-03T17:09:24.980Z,62.35
2023-02-03T17:11:55.822Z,113.28
2023-02-03T17:14:26.293Z,64.97
2023-02-03T17:16:56.768Z,60.63
2023-02-03T17:19:28.257Z,66.60
2023-02-03T17:21:58.690Z,61.40
2023-02-03T17:24:29.177Z,62.00
2023-02-03T17:26:59.571Z,66.93
2023-02-03T17:29:29.972Z,66.97
2023-02-03T17:32:00.263Z,63.17
2023-02-03T17:34:30.745Z,61.17
2023-02-03T17:37:19.857Z,66.85
2023-02-03T17:53:40.430Z,63.50
2023-02-03T17:56:14.812Z,61.90
2023-02-03T17:58:45.534Z,57.72
2023-02-03T18:01:20.019Z,58.25
2023-02-03T18:03:55.238Z,59.25
2023-02-03T18:06:27.967Z,56.95
2023-02-03T18:09:04.977Z,58.47
2023-02-03T18:11:35.725Z,55.08
2023-02-03T18:14:06.974Z,58.83
2023-02-03T18:16:37.677Z,54.03
2023-02-03T18:19:09.285Z,52.80
2023-02-03T18:21:43.389Z,57.50
2023-02-03T18:24:14.870Z,59.92
2023-02-03T18:26:50.102Z,51.85
2023-02-03T18:29:20.754Z,53.47
2023-02-03T18:31:51.236Z,51.80
2023-02-03T18:34:21.315Z,53.97
2023-02-03T18:36:51.832Z,51.63
2023-02-03T18:39:21.951Z,48.45
2023-02-03T18:41:52.382Z,50.47
2023-02-03T18:44:22.735Z,51.70
2023-02-03T18:46:54.691Z,55.72
2023-02-03T18:49:25.071Z,54.58
2023-02-03T18:51:55.236Z,60.22
2023-02-03T18:54:25.586Z,52.13
2023-02-03T18:56:55.728Z,52.42
2023-02-03T18:59:25.913Z,53.20
2023-02-03T19:01:56.575Z,56.25
2023-02-03T19:04:26.974Z,56.47
2023-02-03T19:06:57.372Z,52.53
2023-02-03T19:09:27.865Z,52.55
2023-02-03T19:12:00.392Z,51.75
2023-02-03T19:14:30.807Z,54.78
2023-02-03T19:17:02.575Z,56.85
2023-02-03T19:19:32.717Z,53.47
2023-02-03T19:22:03.323Z,54.40
2023-02-03T19:24:33.696Z,61.08
2023-02-03T19:27:03.850Z,55.60
2023-02-03T19:29:33.994Z,56.88
2023-02-03T19:32:04.288Z,59.60
2023-02-03T19:34:34.462Z,55.50
2023-02-03T19:37:06.580Z,55.65
2023-02-03T19:39:37.311Z,60.72
2023-02-03T19:42:07.628Z,57.22
2023-02-03T19:44:38.612Z,56.40
2023-02-03T19:47:08.805Z,57.70
2023-02-03T19:49:39.265Z,57.85
2023-02-03T19:52:11.797Z,54.30
2023-02-03T19:54:42.168Z,55.28
2023-02-03T19:57:12.338Z,50.95
2023-02-03T19:59:42.786Z,53.95
2023-02-03T20:02:15.409Z,51.35
2023-02-03T20:04:46.422Z,50.03
2023-02-03T20:07:17.862Z,53.45
2023-02-03T20:09:49.283Z,52.72
2023-02-03T20:12:21.224Z,48.90
2023-02-03T20:14:51.443Z,56.03
2023-02-03T20:17:21.609Z,58.88
2023-02-03T20:19:51.885Z,59.60
2023-02-03T20:22:22.722Z,56.97
2023-02-03T20:24:52.981Z,57.95
2023-02-03T20:27:23.799Z,49.03
2023-02-03T20:29:55.601Z,50.45
2023-02-03T20:32:26.190Z,54.10
2023-02-03T20:34:56.566Z,50.88
2023-02-03T20:37:27.908Z,51.72
2023-02-03T20:39:59.199Z,50.17
2023-02-03T20:42:29.332Z,50.75
2023-02-03T20:44:59.870Z,51.80
2023-02-03T20:47:30.409Z,49.72
2023-02-03T20:50:01.452Z,51.83
2023-02-03T20:52:31.531Z,52.03
2023-02-03T20:55:01.759Z,53.92
2023-02-03T20:57:32.204Z,57.05
2023-02-03T21:00:02.335Z,55.22
2023-02-03T21:02:52.131Z,51.63
2023-02-03T21:05:29.608Z,52.90
2023-02-03T21:07:59.794Z,53.55
2023-02-03T21:10:30.797Z,53.33
2023-02-03T21:13:01.222Z,53.83
2023-02-03T21:15:32.605Z,57.75
2023-02-03T21:18:02.703Z,56.58
2023-02-03T21:20:34.231Z,57.20
2023-02-03T21:23:04.671Z,54.97
2023-02-03T21:25:35.930Z,52.05
2023-02-03T21:28:06.424Z,53.70
2023-02-03T21:30:37.033Z,55.15
2023-02-03T21:33:27.252Z,52.08
2023-02-03T21:35:57.502Z,51.55
2023-02-03T21:38:35.276Z,53.42
2023-02-03T21:41:05.572Z,56.50
2023-02-03T21:43:37.800Z,50.83
2023-02-03T21:46:09.037Z,48.75
2023-02-03T21:48:43.147Z,52.67
2023-02-03T21:51:22.248Z,51.00
2023-02-03T21:53:59.833Z,52.75
2023-02-03T21:56:31.815Z,53.35
2023-02-03T21:59:01.961Z,51.50
2023-02-03T22:01:37.072Z,54.25
2023-02-03T22:04:08.039Z,54.90
2023-02-03T22:06:57.811Z,50.85
2023-02-03T22:09:29.191Z,52.67
2023-02-03T22:12:01.191Z,61.03
2023-02-03T22:14:31.430Z,62.55
2023-02-03T22:17:01.685Z,72.97
2023-02-03T22:19:33.765Z,88.80
2023-02-03T22:22:03.899Z,97.18
2023-02-03T22:24:34.301Z,85.32
2023-02-03T22:27:04.845Z,81.07
2023-02-03T22:29:35.259Z,95.28
2023-02-03T22:32:05.484Z,100.53
2023-02-03T22:34:36.031Z,93.80
2023-02-03T22:37:06.625Z,99.07
2023-02-03T22:39:37.072Z,109.15
2023-02-03T22:42:07.652Z,93.38
2023-02-03T22:44:38.039Z,92.93
2023-02-03T22:47:08.919Z,84.55
2023-02-03T22:49:39.952Z,75.88
2023-02-03T22:52:11.190Z,79.18
2023-02-03T22:54:41.327Z,78.75
2023-02-03T22:57:12.447Z,86.60
2023-02-03T22:59:42.906Z,89.07
2023-02-03T23:02:13.544Z,95.03
2023-02-03T23:04:44.529Z,89.60
2023-02-03T23:07:15.380Z,86.18
2023-02-03T23:09:45.981Z,80.38
2023-02-03T23:12:17.205Z,74.18
2023-02-03T23:14:47.437Z,66.93
2023-02-03T23:17:18.338Z,76.65
2023-02-03T23:19:48.913Z,68.18
2023-02-03T23:22:19.450Z,78.15
2023-02-03T23:24:49.939Z,77.25
2023-02-03T23:27:20.915Z,74.65
2023-02-03T23:29:51.112Z,71.90
2023-02-03T23:32:22.174Z,70.32
2023-02-03T23:35:12.612Z,63.97
2023-02-03T23:37:43.060Z,68.13
2023-02-03T23:40:14.019Z,73.78
2023-02-03T23:42:44.526Z,68.35
2023-02-03T23:45:15.201Z,65.45
2023-02-03T23:47:46.621Z,71.80
2023-02-03T23:50:18.611Z,64.13
2023-02-03T23:52:49.613Z,66.60
2023-02-03T23:55:22.355Z,74.07
2023-02-03T23:57:53.242Z,68.22
